createdAt,value
2017-06-10T00:00:58.020Z,0
2017-06-10T00:01:57.920Z,0
2017-06-10T00:02:57.965Z,0
2017-06-10T00:03:58.319Z,0
2017-06-10T00:04:58.068Z,0
2017-06-10T00:05:58.079Z,0
2017-06-10T00:06:58.443Z,0
2017-06-10T00:07:58.491Z,0
2017-06-10T00:08:58.197Z,0
2017-06-10T00:09:58.544Z,0
2017-06-10T00:10:58.286Z,0
2017-06-10T00:11:58.324Z,0
2017-06-10T00:12:58.358Z,0
2017-06-10T00:13:58.403Z,0
2017-06-10T00:14:59.060Z,0
2017-06-10T00:15:58.477Z,0
2017-06-10T00:16:58.525Z,0
2017-06-10T00:17:58.885Z,0
2017-06-10T00:18:58.597Z,0
2017-06-10T00:19:58.958Z,0
2017-06-10T00:20:58.680Z,0
2017-06-10T00:21:59.040Z,0
2017-06-10T00:22:59.076Z,0
2017-06-10T00:23:59.310Z,0
2017-06-10T00:24:58.841Z,0
2017-06-10T00:25:59.485Z,0
2017-06-10T00:26:58.924Z,0
2017-06-10T00:27:58.960Z,0
2017-06-10T00:28:59.308Z,0
2017-06-10T00:29:59.033Z,0
2017-06-10T00:30:59.073Z,0
2017-06-10T00:31:59.129Z,0
2017-06-10T00:32:59.764Z,0
2017-06-10T00:34:00.129Z,0
2017-06-10T00:34:59.242Z,0
2017-06-10T00:35:59.586Z,0
2017-06-10T00:36:59.631Z,0
2017-06-10T00:37:59.658Z,0
2017-06-10T00:38:59.707Z,0
2017-06-10T00:39:59.438Z,0
2017-06-10T00:40:59.482Z,0
2017-06-10T00:41:59.829Z,0
2017-06-10T00:42:59.864Z,0
2017-06-10T00:43:59.590Z,0
2017-06-10T00:44:59.934Z,0
2017-06-10T00:45:59.683Z,0
2017-06-10T00:46:59.706Z,0
2017-06-10T00:47:59.761Z,0
2017-06-10T00:48:59.799Z,0
2017-06-10T00:50:00.149Z,0
2017-06-10T00:50:59.867Z,0
2017-06-10T00:51:59.919Z,0
2017-06-10T00:52:59.947Z,0
2017-06-10T00:54:00.306Z,0
2017-06-10T00:55:00.024Z,0
2017-06-10T00:56:00.083Z,0
2017-06-10T00:57:00.111Z,0
2017-06-10T00:58:00.145Z,0
2017-06-10T00:59:00.497Z,0
2017-06-10T01:00:00.542Z,0
2017-06-10T01:01:00.271Z,0
2017-06-10T01:02:00.333Z,0
2017-06-10T01:03:00.352Z,0
2017-06-10T01:04:00.717Z,0
2017-06-10T01:05:00.729Z,0
2017-06-10T01:06:01.079Z,0
2017-06-10T01:07:00.815Z,0
2017-06-10T01:08:00.549Z,0
2017-06-10T01:09:00.579Z,0
2017-06-10T01:10:00.938Z,0
2017-06-10T01:11:00.965Z,0
2017-06-10T01:12:00.697Z,0
2017-06-10T01:13:01.370Z,0
2017-06-10T01:14:01.401Z,0
2017-06-10T01:15:00.819Z,0
2017-06-10T01:16:01.169Z,0
2017-06-10T01:17:00.893Z,0
2017-06-10T01:18:00.948Z,0
2017-06-10T01:19:00.993Z,0
2017-06-10T01:20:01.023Z,0
2017-06-10T01:21:01.062Z,0
2017-06-10T01:22:01.708Z,0
2017-06-10T01:23:01.453Z,0
2017-06-10T01:24:01.177Z,0
2017-06-10T01:25:01.835Z,0
2017-06-10T01:26:01.256Z,0
2017-06-10T01:27:01.288Z,0
2017-06-10T01:28:01.341Z,0
2017-06-10T01:29:01.380Z,0
2017-06-10T01:30:01.411Z,0
2017-06-10T01:31:01.766Z,0
2017-06-10T01:32:01.494Z,0
2017-06-10T01:33:02.142Z,0
2017-06-10T01:34:01.889Z,0
2017-06-10T01:35:01.926Z,0
2017-06-10T01:36:01.967Z,0
2017-06-10T01:37:01.698Z,0
2017-06-10T01:38:02.033Z,0
2017-06-10T01:39:02.092Z,0
2017-06-10T01:40:01.826Z,0
2017-06-10T01:41:01.855Z,0
2017-06-10T01:42:01.885Z,0
2017-06-10T01:43:02.556Z,0
2017-06-10T01:44:02.351Z,0
2017-06-10T01:45:02.312Z,0
2017-06-10T01:46:02.046Z,0
2017-06-10T01:47:02.395Z,0
2017-06-10T01:48:02.426Z,0
2017-06-10T01:49:02.165Z,0
2017-06-10T01:50:02.200Z,0
2017-06-10T01:51:02.255Z,0
2017-06-10T01:52:02.594Z,0
2017-06-10T01:53:02.320Z,0
2017-06-10T01:54:02.665Z,0
2017-06-10T01:55:02.553Z,0
2017-06-10T01:56:02.443Z,0
2017-06-10T01:57:02.476Z,0
2017-06-10T01:58:02.515Z,0
2017-06-10T01:59:02.552Z,0
2017-06-10T02:00:02.585Z,0
2017-06-10T02:01:02.943Z,0
2017-06-10T02:02:02.982Z,0
2017-06-10T02:03:03.012Z,0
2017-06-10T02:04:03.051Z,0
2017-06-10T02:05:02.793Z,0
2017-06-10T02:06:02.829Z,0
2017-06-10T02:07:03.190Z,0
2017-06-10T02:08:03.243Z,0
2017-06-10T02:09:02.943Z,0
2017-06-10T02:10:03.097Z,0
2017-06-10T02:11:03.025Z,0
2017-06-10T02:12:03.054Z,0
2017-06-10T02:13:03.418Z,0
2017-06-10T02:14:03.461Z,0
2017-06-10T02:15:03.194Z,0
2017-06-10T02:16:03.524Z,0
2017-06-10T02:17:03.566Z,0
2017-06-10T02:18:03.299Z,0
2017-06-10T02:19:03.638Z,0
2017-06-10T02:20:03.372Z,0
2017-06-10T02:21:03.415Z,0
2017-06-10T02:22:03.458Z,0
2017-06-10T02:23:03.801Z,0
2017-06-10T02:24:03.520Z,0
2017-06-10T02:25:03.877Z,0
2017-06-10T02:26:03.606Z,0
2017-06-10T02:27:03.950Z,0
2017-06-10T02:28:03.691Z,0
2017-06-10T02:29:03.734Z,0
2017-06-10T02:30:04.086Z,0
2017-06-10T02:31:04.465Z,0
2017-06-10T02:32:03.855Z,0
2017-06-10T02:33:03.878Z,0
2017-06-10T02:34:04.231Z,0
2017-06-10T02:35:04.263Z,0
2017-06-10T02:36:03.996Z,0
2017-06-10T02:37:04.657Z,0
2017-06-10T02:38:04.070Z,0
2017-06-10T02:39:04.438Z,0
2017-06-10T02:40:04.481Z,0
2017-06-10T02:41:04.520Z,0
2017-06-10T02:42:04.235Z,0
2017-06-10T02:43:04.264Z,0
2017-06-10T02:44:04.310Z,0
2017-06-10T02:45:04.347Z,0
2017-06-10T02:46:04.698Z,0
2017-06-10T02:47:04.427Z,0
2017-06-10T02:48:04.772Z,0
2017-06-10T02:49:04.505Z,0
2017-06-10T02:50:04.544Z,5
2017-06-10T02:51:04.584Z,5
2017-06-10T02:52:04.619Z,5
2017-06-10T02:53:04.973Z,5
2017-06-10T02:54:04.693Z,5
2017-06-10T02:55:04.728Z,5
2017-06-10T02:56:04.768Z,5
2017-06-10T02:57:05.118Z,5
2017-06-10T02:58:04.853Z,5
2017-06-10T02:59:04.892Z,5
2017-06-10T03:00:04.931Z,5
2017-06-10T03:01:04.974Z,10
2017-06-10T03:02:05.018Z,10
2017-06-10T03:03:05.360Z,10
2017-06-10T03:04:05.081Z,10
2017-06-10T03:05:05.441Z,10
2017-06-10T03:06:05.187Z,10
2017-06-10T03:07:05.503Z,10
2017-06-10T03:08:05.550Z,10
2017-06-10T03:09:05.274Z,10
2017-06-10T03:10:05.324Z,15
2017-06-10T03:11:05.354Z,15
2017-06-10T03:12:05.385Z,15
2017-06-10T03:13:05.436Z,15
2017-06-10T03:14:06.084Z,15
2017-06-10T03:15:05.810Z,15
2017-06-10T03:16:05.853Z,15
2017-06-10T03:17:05.593Z,15
2017-06-10T03:18:05.937Z,20
2017-06-10T03:19:05.986Z,20
2017-06-10T03:20:05.716Z,20
2017-06-10T03:21:06.367Z,20
2017-06-10T03:22:06.114Z,20
2017-06-10T03:23:05.828Z,20
2017-06-10T03:24:06.163Z,20
2017-06-10T03:25:06.203Z,25
2017-06-10T03:26:06.252Z,25
2017-06-10T03:27:06.283Z,25
2017-06-10T03:28:06.013Z,25
2017-06-10T03:29:06.056Z,30
2017-06-10T03:30:06.094Z,30
2017-06-10T03:31:06.120Z,35
2017-06-10T03:32:06.163Z,35
2017-06-10T03:33:06.209Z,40
2017-06-10T03:34:06.547Z,40
2017-06-10T03:35:06.275Z,45
2017-06-10T03:36:06.315Z,45
2017-06-10T03:37:06.673Z,50
2017-06-10T03:38:06.401Z,65
2017-06-10T03:39:07.057Z,85
2017-06-10T03:40:06.793Z,100
2017-06-10T03:41:06.507Z,110
2017-06-10T03:42:07.175Z,120
2017-06-10T03:43:07.213Z,120
2017-06-10T03:44:07.288Z,125
2017-06-10T03:45:06.982Z,130
2017-06-10T03:46:06.711Z,145
2017-06-10T03:47:07.056Z,145
2017-06-10T03:48:06.788Z,150
2017-06-10T03:49:06.839Z,155
2017-06-10T03:50:06.867Z,160
2017-06-10T03:51:07.516Z,170
2017-06-10T03:52:06.952Z,175
2017-06-10T03:53:06.999Z,185
2017-06-10T03:54:07.020Z,195
2017-06-10T03:55:07.383Z,195
2017-06-10T03:56:07.103Z,205
2017-06-10T03:57:07.152Z,215
2017-06-10T03:58:07.190Z,225
2017-06-10T03:59:07.218Z,235
2017-06-10T04:00:07.698Z,230
2017-06-10T04:01:07.612Z,230
2017-06-10T04:02:07.653Z,235
2017-06-10T04:03:07.691Z,240
2017-06-10T04:04:07.426Z,260
2017-06-10T04:05:07.785Z,265
2017-06-10T04:06:07.536Z,270
2017-06-10T04:07:07.547Z,275
2017-06-10T04:08:07.908Z,280
2017-06-10T04:09:07.939Z,300
2017-06-10T04:10:07.686Z,300
2017-06-10T04:11:07.730Z,285
2017-06-10T04:12:08.372Z,270
2017-06-10T04:13:07.809Z,260
2017-06-10T04:14:07.867Z,240
2017-06-10T04:15:07.890Z,140
2017-06-10T04:16:07.923Z,130
2017-06-10T04:17:07.976Z,130
2017-06-10T04:18:08.323Z,160
2017-06-10T04:19:08.053Z,165
2017-06-10T04:20:08.101Z,315
2017-06-10T04:21:08.444Z,325
2017-06-10T04:22:08.504Z,145
2017-06-10T04:23:08.540Z,135
2017-06-10T04:24:08.575Z,140
2017-06-10T04:25:08.305Z,135
2017-06-10T04:26:08.687Z,140
2017-06-10T04:27:08.395Z,145
2017-06-10T04:28:08.747Z,155
2017-06-10T04:29:08.787Z,155
2017-06-10T04:30:09.123Z,160
2017-06-10T04:31:08.872Z,175
2017-06-10T04:32:08.596Z,185
2017-06-10T04:33:08.953Z,195
2017-06-10T04:34:08.684Z,270
2017-06-10T04:35:09.062Z,415
2017-06-10T04:36:08.988Z,355
2017-06-10T04:37:08.799Z,245
2017-06-10T04:38:08.875Z,185
2017-06-10T04:39:09.210Z,255
2017-06-10T04:40:08.930Z,335
2017-06-10T04:41:09.277Z,405
2017-06-10T04:42:09.017Z,410
2017-06-10T04:43:09.053Z,350
2017-06-10T04:44:09.089Z,300
2017-06-10T04:45:09.139Z,280
2017-06-10T04:46:09.181Z,270
2017-06-10T04:47:09.219Z,390
2017-06-10T04:48:09.574Z,390
2017-06-10T04:49:09.306Z,225
2017-06-10T04:50:09.348Z,230
2017-06-10T04:51:09.385Z,260
2017-06-10T04:52:09.722Z,280
2017-06-10T04:53:09.772Z,275
2017-06-10T04:54:09.512Z,315
2017-06-10T04:55:09.543Z,285
2017-06-10T04:56:09.595Z,245
2017-06-10T04:57:09.642Z,230
2017-06-10T04:58:09.702Z,255
2017-06-10T04:59:10.015Z,255
2017-06-10T05:00:09.760Z,270
2017-06-10T05:01:09.801Z,295
2017-06-10T05:02:10.152Z,355
2017-06-10T05:03:09.900Z,490
2017-06-10T05:04:10.234Z,600
2017-06-10T05:05:09.974Z,520
2017-06-10T05:06:10.316Z,390
2017-06-10T05:07:10.040Z,315
2017-06-10T05:08:10.089Z,300
2017-06-10T05:09:10.123Z,320
2017-06-10T05:10:10.175Z,360
2017-06-10T05:11:10.513Z,390
2017-06-10T05:12:10.555Z,420
2017-06-10T05:13:10.296Z,365
2017-06-10T05:14:10.652Z,290
2017-06-10T05:15:10.370Z,255
2017-06-10T05:16:10.763Z,245
2017-06-10T05:17:10.464Z,245
2017-06-10T05:18:10.818Z,245
2017-06-10T05:19:10.549Z,245
2017-06-10T05:20:10.597Z,285
2017-06-10T05:21:10.635Z,335
2017-06-10T05:22:10.673Z,295
2017-06-10T05:23:10.737Z,260
2017-06-10T05:24:10.757Z,260
2017-06-10T05:25:11.114Z,280
2017-06-10T05:26:11.142Z,290
2017-06-10T05:27:11.183Z,275
2017-06-10T05:28:10.927Z,265
2017-06-10T05:29:12.165Z,265
2017-06-10T05:30:11.315Z,260
2017-06-10T05:31:11.045Z,275
2017-06-10T05:32:11.078Z,285
2017-06-10T05:33:11.441Z,310
2017-06-10T05:34:11.476Z,325
2017-06-10T05:35:11.211Z,400
2017-06-10T05:36:11.244Z,590
2017-06-10T05:37:11.605Z,845
2017-06-10T05:38:11.645Z,1080
2017-06-10T05:39:11.699Z,1145
2017-06-10T05:40:11.413Z,1160
2017-06-10T05:41:11.778Z,1185
2017-06-10T05:42:11.507Z,1185
2017-06-10T05:43:11.549Z,1190
2017-06-10T05:44:11.892Z,1210
2017-06-10T05:45:11.962Z,1255
2017-06-10T05:46:11.728Z,1280
2017-06-10T05:47:11.717Z,1280
2017-06-10T05:48:12.069Z,1275
2017-06-10T05:49:11.810Z,1295
2017-06-10T05:50:12.474Z,1315
2017-06-10T05:51:11.907Z,1325
2017-06-10T05:52:12.264Z,1315
2017-06-10T05:53:12.005Z,1315
2017-06-10T05:54:12.056Z,1310
2017-06-10T05:55:12.094Z,1315
2017-06-10T05:56:12.139Z,1350
2017-06-10T05:57:12.208Z,1335
2017-06-10T05:58:12.263Z,1335
2017-06-10T05:59:12.301Z,1370
2017-06-10T06:00:12.345Z,1400
2017-06-10T06:01:12.404Z,1445
2017-06-10T06:02:13.073Z,1465
2017-06-10T06:03:12.489Z,1520
2017-06-10T06:04:12.544Z,1520
2017-06-10T06:05:12.903Z,1515
2017-06-10T06:06:12.961Z,1575
2017-06-10T06:07:12.702Z,1595
2017-06-10T06:08:13.151Z,1615
2017-06-10T06:09:13.431Z,1595
2017-06-10T06:10:12.856Z,1630
2017-06-10T06:11:13.219Z,1645
2017-06-10T06:12:12.953Z,1650
2017-06-10T06:13:13.002Z,1635
2017-06-10T06:14:13.372Z,1625
2017-06-10T06:15:13.109Z,1675
2017-06-10T06:16:13.468Z,1690
2017-06-10T06:17:13.224Z,1705
2017-06-10T06:18:13.269Z,1685
2017-06-10T06:19:13.326Z,1730
2017-06-10T06:20:13.684Z,1700
2017-06-10T06:21:13.425Z,1705
2017-06-10T06:22:13.490Z,1740
2017-06-10T06:23:13.542Z,1745
2017-06-10T06:24:13.596Z,1755
2017-06-10T06:25:13.665Z,1785
2017-06-10T06:26:14.010Z,1775
2017-06-10T06:27:14.057Z,1775
2017-06-10T06:28:13.801Z,1770
2017-06-10T06:29:13.858Z,1795
2017-06-10T06:30:14.546Z,1805
2017-06-10T06:31:14.291Z,1755
2017-06-10T06:32:14.025Z,1695
2017-06-10T06:33:14.390Z,1715
2017-06-10T06:34:14.135Z,1710
2017-06-10T06:35:14.189Z,1710
2017-06-10T06:36:14.238Z,1720
2017-06-10T06:37:14.300Z,1755
2017-06-10T06:38:14.352Z,1285
2017-06-10T06:39:14.722Z,1055
2017-06-10T06:40:14.770Z,1385
2017-06-10T06:41:14.817Z,1680
2017-06-10T06:42:14.582Z,1880
2017-06-10T06:43:14.631Z,1840
2017-06-10T06:44:14.981Z,1865
2017-06-10T06:45:14.731Z,1900
2017-06-10T06:46:15.104Z,1900
2017-06-10T06:47:15.155Z,1935
2017-06-10T06:48:14.908Z,1905
2017-06-10T06:49:14.961Z,1915
2017-06-10T06:50:15.321Z,1980
2017-06-10T06:51:15.077Z,2005
2017-06-10T06:52:15.736Z,2015
2017-06-10T06:53:15.183Z,2055
2017-06-10T06:54:15.536Z,2050
2017-06-10T06:55:15.612Z,2040
2017-06-10T06:56:15.672Z,2035
2017-06-10T06:57:15.393Z,2095
2017-06-10T06:58:15.459Z,1870
2017-06-10T06:59:15.817Z,735
2017-06-10T07:00:15.888Z,2015
2017-06-10T07:01:15.637Z,1960
2017-06-10T07:02:16.000Z,1970
2017-06-10T07:03:15.966Z,1985
2017-06-10T07:04:16.119Z,2015
2017-06-10T07:05:15.851Z,2025
2017-06-10T07:06:16.216Z,2115
2017-06-10T07:07:15.959Z,2125
2017-06-10T07:08:16.335Z,2160
2017-06-10T07:09:16.087Z,2145
2017-06-10T07:10:16.462Z,2155
2017-06-10T07:11:16.505Z,2170
2017-06-10T07:12:16.245Z,2170
2017-06-10T07:13:16.306Z,2175
2017-06-10T07:14:16.367Z,2145
2017-06-10T07:15:16.732Z,2090
2017-06-10T07:16:16.784Z,2080
2017-06-10T07:17:16.549Z,2055
2017-06-10T07:18:17.220Z,2085
2017-06-10T07:19:16.654Z,2095
2017-06-10T07:20:16.701Z,2090
2017-06-10T07:21:16.760Z,2100
2017-06-10T07:22:17.132Z,2115
2017-06-10T07:23:16.874Z,2100
2017-06-10T07:24:16.963Z,2100
2017-06-10T07:25:17.003Z,2080
2017-06-10T07:26:17.672Z,2065
2017-06-10T07:27:17.113Z,2050
2017-06-10T07:28:17.468Z,2075
2017-06-10T07:29:17.234Z,2120
2017-06-10T07:30:17.595Z,2140
2017-06-10T07:31:17.336Z,2210
2017-06-10T07:32:18.025Z,2220
2017-06-10T07:33:17.460Z,2300
2017-06-10T07:34:18.129Z,2320
2017-06-10T07:35:17.569Z,2305
2017-06-10T07:36:17.942Z,1375
2017-06-10T07:37:17.692Z,2265
2017-06-10T07:38:17.747Z,555
2017-06-10T07:39:17.805Z,475
2017-06-10T07:40:18.164Z,2130
2017-06-10T07:41:18.229Z,2120
2017-06-10T07:42:17.966Z,2135
2017-06-10T07:43:18.035Z,2190
2017-06-10T07:44:18.082Z,2225
2017-06-10T07:45:18.148Z,2300
2017-06-10T07:46:18.515Z,2360
2017-06-10T07:47:18.576Z,2380
2017-06-10T07:48:18.315Z,2430
2017-06-10T07:49:18.690Z,2460
2017-06-10T07:50:18.743Z,680
2017-06-10T07:51:18.487Z,2475
2017-06-10T07:52:18.555Z,2555
2017-06-10T07:53:18.929Z,685
2017-06-10T07:54:19.298Z,470
2017-06-10T07:55:18.714Z,445
2017-06-10T07:56:19.092Z,2300
2017-06-10T07:57:19.448Z,2310
2017-06-10T07:58:18.890Z,2280
2017-06-10T07:59:19.566Z,475
2017-06-10T08:00:18.998Z,440
2017-06-10T08:01:19.392Z,2340
2017-06-10T08:02:19.415Z,2415
2017-06-10T08:03:19.155Z,2440
2017-06-10T08:04:19.208Z,2360
2017-06-10T08:05:19.276Z,2460
2017-06-10T08:06:19.639Z,2485
2017-06-10T08:07:19.379Z,2460
2017-06-10T08:08:19.435Z,2445
2017-06-10T08:09:19.805Z,2460
2017-06-10T08:10:20.482Z,2490
2017-06-10T08:11:19.609Z,2525
2017-06-10T08:12:19.658Z,2580
2017-06-10T08:13:20.041Z,2690
2017-06-10T08:14:20.076Z,1535
2017-06-10T08:15:19.826Z,2645
2017-06-10T08:16:20.193Z,2415
2017-06-10T08:17:19.948Z,2655
2017-06-10T08:18:20.314Z,2240
2017-06-10T08:19:20.520Z,525
2017-06-10T08:20:20.724Z,470
2017-06-10T08:21:20.479Z,2710
2017-06-10T08:22:20.871Z,2680
2017-06-10T08:23:20.285Z,2675
2017-06-10T08:24:20.658Z,2700
2017-06-10T08:25:20.401Z,2750
2017-06-10T08:26:20.448Z,2735
2017-06-10T08:27:20.827Z,2400
2017-06-10T08:28:20.880Z,2445
2017-06-10T08:29:20.928Z,790
2017-06-10T08:30:20.678Z,2675
2017-06-10T08:31:20.730Z,590
2017-06-10T08:32:21.128Z,1430
2017-06-10T08:33:20.866Z,2795
2017-06-10T08:34:21.217Z,2880
2017-06-10T08:35:21.593Z,2935
2017-06-10T08:36:21.025Z,2985
2017-06-10T08:37:21.691Z,3070
2017-06-10T08:38:21.134Z,3070
2017-06-10T08:39:21.508Z,2990
2017-06-10T08:40:21.238Z,2995
2017-06-10T08:41:21.610Z,2895
2017-06-10T08:42:21.665Z,440
2017-06-10T08:43:21.420Z,390
2017-06-10T08:44:21.470Z,390
2017-06-10T08:45:21.875Z,410
2017-06-10T08:46:21.880Z,2405
2017-06-10T08:47:21.636Z,635
2017-06-10T08:48:21.989Z,545
2017-06-10T08:49:22.046Z,1100
2017-06-10T08:50:21.801Z,1670
2017-06-10T08:51:21.851Z,575
2017-06-10T08:52:21.906Z,3025
2017-06-10T08:53:21.954Z,1935
2017-06-10T08:54:22.310Z,1970
2017-06-10T08:55:22.063Z,2930
2017-06-10T08:56:22.114Z,2930
2017-06-10T08:57:22.474Z,2375
2017-06-10T08:58:23.141Z,710
2017-06-10T08:59:22.581Z,740
2017-06-10T09:00:22.335Z,420
2017-06-10T09:01:22.700Z,335
2017-06-10T09:02:22.759Z,285
2017-06-10T09:03:22.807Z,265
2017-06-10T09:04:22.854Z,270
2017-06-10T09:05:22.595Z,280
2017-06-10T09:06:22.955Z,280
2017-06-10T09:07:23.069Z,315
2017-06-10T09:08:23.062Z,405
2017-06-10T09:09:23.128Z,460
2017-06-10T09:10:23.183Z,475
2017-06-10T09:11:22.915Z,490
2017-06-10T09:12:22.953Z,560
2017-06-10T09:13:23.002Z,2185
2017-06-10T09:14:23.363Z,460
2017-06-10T09:15:23.153Z,440
2017-06-10T09:16:23.163Z,415
2017-06-10T09:17:23.830Z,390
2017-06-10T09:18:23.261Z,360
2017-06-10T09:19:23.609Z,330
2017-06-10T09:20:23.980Z,310
2017-06-10T09:21:23.707Z,275
2017-06-10T09:22:23.766Z,260
2017-06-10T09:23:23.811Z,260
2017-06-10T09:24:23.542Z,280
2017-06-10T09:25:23.604Z,320
2017-06-10T09:26:23.960Z,370
2017-06-10T09:27:23.690Z,405
2017-06-10T09:28:23.739Z,445
2017-06-10T09:29:23.797Z,545
2017-06-10T09:30:24.147Z,2750
2017-06-10T09:31:23.883Z,2865
2017-06-10T09:32:23.925Z,2900
2017-06-10T09:33:23.980Z,1635
2017-06-10T09:34:24.345Z,570
2017-06-10T09:35:24.391Z,700
2017-06-10T09:36:24.137Z,535
2017-06-10T09:37:24.183Z,565
2017-06-10T09:38:24.545Z,530
2017-06-10T09:39:24.579Z,510
2017-06-10T09:40:24.640Z,540
2017-06-10T09:41:24.675Z,710
2017-06-10T09:42:24.486Z,2680
2017-06-10T09:43:24.774Z,2870
2017-06-10T09:44:24.520Z,2790
2017-06-10T09:45:24.576Z,2760
2017-06-10T09:46:24.921Z,2730
2017-06-10T09:47:24.703Z,2735
2017-06-10T09:48:25.025Z,2745
2017-06-10T09:49:24.769Z,2770
2017-06-10T09:50:24.833Z,2775
2017-06-10T09:51:25.484Z,2775
2017-06-10T09:52:24.921Z,2740
2017-06-10T09:53:25.292Z,2690
2017-06-10T09:54:25.664Z,2615
2017-06-10T09:55:25.098Z,2555
2017-06-10T09:56:25.148Z,2505
2017-06-10T09:57:25.507Z,2425
2017-06-10T09:58:25.300Z,2515
2017-06-10T09:59:25.303Z,2605
2017-06-10T10:00:25.683Z,630
2017-06-10T10:01:25.424Z,1845
2017-06-10T10:02:25.777Z,2815
2017-06-10T10:03:25.542Z,2390
2017-06-10T10:04:25.897Z,2060
2017-06-10T10:05:25.953Z,1645
2017-06-10T10:06:26.012Z,1780
2017-06-10T10:07:25.752Z,555
2017-06-10T10:08:25.975Z,1925
2017-06-10T10:09:26.494Z,795
2017-06-10T10:10:25.918Z,565
2017-06-10T10:11:25.980Z,605
2017-06-10T10:12:26.034Z,1260
2017-06-10T10:13:26.382Z,655
2017-06-10T10:14:26.132Z,550
2017-06-10T10:15:26.496Z,470
2017-06-10T10:16:26.242Z,475
2017-06-10T10:17:26.298Z,430
2017-06-10T10:18:26.348Z,505
2017-06-10T10:19:26.711Z,465
2017-06-10T10:20:26.447Z,420
2017-06-10T10:21:26.804Z,490
2017-06-10T10:22:26.865Z,490
2017-06-10T10:23:26.619Z,495
2017-06-10T10:24:26.656Z,465
2017-06-10T10:25:26.707Z,455
2017-06-10T10:26:26.761Z,435
2017-06-10T10:27:26.816Z,415
2017-06-10T10:28:26.863Z,425
2017-06-10T10:29:26.909Z,420
2017-06-10T10:30:26.954Z,430
2017-06-10T10:31:27.615Z,430
2017-06-10T10:32:27.357Z,460
2017-06-10T10:33:27.416Z,645
2017-06-10T10:34:27.486Z,2920
2017-06-10T10:35:27.503Z,2660
2017-06-10T10:36:27.252Z,1135
2017-06-10T10:37:27.312Z,925
2017-06-10T10:38:27.358Z,850
2017-06-10T10:39:27.399Z,680
2017-06-10T10:40:27.443Z,710
2017-06-10T10:41:27.808Z,610
2017-06-10T10:42:27.849Z,640
2017-06-10T10:43:28.234Z,555
2017-06-10T10:44:27.956Z,525
2017-06-10T10:45:27.996Z,505
2017-06-10T10:46:28.058Z,490
2017-06-10T10:47:28.107Z,490
2017-06-10T10:48:27.836Z,505
2017-06-10T10:49:28.215Z,585
2017-06-10T10:50:28.546Z,525
2017-06-10T10:51:28.291Z,925
2017-06-10T10:52:28.031Z,540
2017-06-10T10:53:28.391Z,555
2017-06-10T10:54:28.140Z,630
2017-06-10T10:55:28.495Z,620
2017-06-10T10:56:28.536Z,650
2017-06-10T10:57:28.281Z,665
2017-06-10T10:58:28.630Z,700
2017-06-10T10:59:28.879Z,645
2017-06-10T11:00:28.735Z,605
2017-06-10T11:01:28.516Z,550
2017-06-10T11:02:28.818Z,535
2017-06-10T11:03:28.879Z,505
2017-06-10T11:04:28.961Z,490
2017-06-10T11:05:28.973Z,460
2017-06-10T11:06:28.708Z,465
2017-06-10T11:07:29.070Z,460
2017-06-10T11:08:29.136Z,445
2017-06-10T11:09:29.486Z,490
2017-06-10T11:10:29.222Z,505
2017-06-10T11:11:29.265Z,555
2017-06-10T11:12:29.312Z,545
2017-06-10T11:13:29.046Z,550
2017-06-10T11:14:29.425Z,555
2017-06-10T11:15:29.187Z,545
2017-06-10T11:16:29.200Z,525
2017-06-10T11:17:29.244Z,500
2017-06-10T11:18:29.300Z,485
2017-06-10T11:19:29.640Z,480
2017-06-10T11:20:30.008Z,475
2017-06-10T11:21:29.430Z,485
2017-06-10T11:22:29.797Z,485
2017-06-10T11:23:30.146Z,530
2017-06-10T11:24:29.581Z,570
2017-06-10T11:25:29.632Z,555
2017-06-10T11:26:29.684Z,545
2017-06-10T11:27:29.722Z,535
2017-06-10T11:28:30.080Z,570
2017-06-10T11:29:29.819Z,580
2017-06-10T11:30:29.869Z,565
2017-06-10T11:31:29.920Z,560
2017-06-10T11:32:29.953Z,550
2017-06-10T11:33:30.337Z,580
2017-06-10T11:34:30.061Z,560
2017-06-10T11:35:30.556Z,530
2017-06-10T11:36:30.462Z,515
2017-06-10T11:37:30.500Z,535
2017-06-10T11:38:30.267Z,525
2017-06-10T11:39:30.737Z,520
2017-06-10T11:40:30.651Z,515
2017-06-10T11:41:30.690Z,525
2017-06-10T11:42:30.426Z,510
2017-06-10T11:43:30.788Z,465
2017-06-10T11:44:30.520Z,460
2017-06-10T11:45:30.896Z,455
2017-06-10T11:46:30.618Z,450
2017-06-10T11:47:30.723Z,450
2017-06-10T11:48:30.709Z,430
2017-06-10T11:49:31.061Z,440
2017-06-10T11:50:30.848Z,435
2017-06-10T11:51:31.159Z,410
2017-06-10T11:52:30.931Z,420
2017-06-10T11:53:31.261Z,420
2017-06-10T11:54:31.002Z,425
2017-06-10T11:55:31.041Z,465
2017-06-10T11:56:31.087Z,490
2017-06-10T11:57:31.757Z,500
2017-06-10T11:58:31.792Z,495
2017-06-10T11:59:31.229Z,485
2017-06-10T12:00:31.604Z,465
2017-06-10T12:01:31.321Z,420
2017-06-10T12:02:31.364Z,385
2017-06-10T12:03:31.724Z,365
2017-06-10T12:04:31.467Z,340
2017-06-10T12:05:31.508Z,325
2017-06-10T12:06:31.879Z,335
2017-06-10T12:07:31.609Z,335
2017-06-10T12:08:31.954Z,335
2017-06-10T12:09:32.014Z,330
2017-06-10T12:10:31.750Z,325
2017-06-10T12:11:31.791Z,345
2017-06-10T12:12:32.154Z,360
2017-06-10T12:13:32.528Z,370
2017-06-10T12:14:31.924Z,385
2017-06-10T12:15:32.280Z,385
2017-06-10T12:16:32.026Z,375
2017-06-10T12:17:32.377Z,375
2017-06-10T12:18:32.433Z,385
2017-06-10T12:19:32.153Z,415
2017-06-10T12:20:32.219Z,420
2017-06-10T12:21:32.565Z,420
2017-06-10T12:22:32.603Z,385
2017-06-10T12:23:32.965Z,355
2017-06-10T12:24:32.385Z,325
2017-06-10T12:25:32.740Z,295
2017-06-10T12:26:32.794Z,285
2017-06-10T12:27:32.525Z,290
2017-06-10T12:28:33.179Z,285
2017-06-10T12:29:32.613Z,270
2017-06-10T12:30:32.984Z,270
2017-06-10T12:31:32.744Z,265
2017-06-10T12:32:32.750Z,255
2017-06-10T12:33:32.797Z,245
2017-06-10T12:34:33.069Z,235
2017-06-10T12:35:32.893Z,230
2017-06-10T12:36:32.943Z,225
2017-06-10T12:37:33.297Z,230
2017-06-10T12:38:33.026Z,225
2017-06-10T12:39:33.084Z,220
2017-06-10T12:40:33.127Z,225
2017-06-10T12:41:33.162Z,225
2017-06-10T12:42:33.208Z,220
2017-06-10T12:43:33.249Z,215
2017-06-10T12:44:33.308Z,215
2017-06-10T12:45:33.349Z,210
2017-06-10T12:46:33.399Z,210
2017-06-10T12:47:33.752Z,210
2017-06-10T12:48:33.504Z,205
2017-06-10T12:49:33.545Z,205
2017-06-10T12:50:33.887Z,200
2017-06-10T12:51:33.611Z,200
2017-06-10T12:52:33.971Z,200
2017-06-10T12:53:33.701Z,210
2017-06-10T12:54:33.757Z,210
2017-06-10T12:55:33.799Z,210
2017-06-10T12:56:33.851Z,205
2017-06-10T12:57:34.825Z,205
2017-06-10T12:58:33.928Z,200
2017-06-10T12:59:34.313Z,200
2017-06-10T13:00:34.330Z,195
2017-06-10T13:01:34.693Z,190
2017-06-10T13:02:34.107Z,185
2017-06-10T13:03:34.474Z,190
2017-06-10T13:04:34.517Z,195
2017-06-10T13:05:34.878Z,190
2017-06-10T13:06:34.293Z,195
2017-06-10T13:07:34.336Z,200
2017-06-10T13:08:34.704Z,200
2017-06-10T13:09:34.744Z,210
2017-06-10T13:10:34.464Z,220
2017-06-10T13:11:35.135Z,225
2017-06-10T13:12:34.872Z,225
2017-06-10T13:13:34.660Z,225
2017-06-10T13:14:34.967Z,215
2017-06-10T13:15:35.311Z,200
2017-06-10T13:16:34.734Z,195
2017-06-10T13:17:35.464Z,195
2017-06-10T13:18:34.819Z,215
2017-06-10T13:19:34.861Z,235
2017-06-10T13:20:35.214Z,235
2017-06-10T13:21:35.012Z,225
2017-06-10T13:22:35.635Z,230
2017-06-10T13:23:35.421Z,245
2017-06-10T13:24:35.099Z,240
2017-06-10T13:25:35.767Z,225
2017-06-10T13:26:35.481Z,210
2017-06-10T13:27:35.226Z,210
2017-06-10T13:28:35.318Z,210
2017-06-10T13:29:35.634Z,205
2017-06-10T13:30:35.660Z,195
2017-06-10T13:31:35.769Z,190
2017-06-10T13:32:35.445Z,190
2017-06-10T13:33:35.531Z,180
2017-06-10T13:34:35.536Z,175
2017-06-10T13:35:35.594Z,180
2017-06-10T13:36:35.947Z,185
2017-06-10T13:37:35.664Z,190
2017-06-10T13:38:36.021Z,180
2017-06-10T13:39:36.077Z,175
2017-06-10T13:40:35.803Z,170
2017-06-10T13:41:35.857Z,175
2017-06-10T13:42:35.898Z,190
2017-06-10T13:43:35.940Z,195
2017-06-10T13:44:35.978Z,195
2017-06-10T13:45:36.332Z,195
2017-06-10T13:46:36.389Z,185
2017-06-10T13:47:36.416Z,185
2017-06-10T13:48:36.482Z,190
2017-06-10T13:49:36.222Z,190
2017-06-10T13:50:36.792Z,190
2017-06-10T13:51:36.301Z,190
2017-06-10T13:52:36.348Z,185
2017-06-10T13:53:36.400Z,185